Back to Top

Language: 

My Weather Underground Personal Weather Station Historical Data with Graphs...

Delerius Weather Station Historical Data
Daily Summary for January 1, 2018 Units:  English    Metric   Both
« Previous Day
Next Day »
Daily Weekly Monthly Yearly Custom
  High: Low: Average:
Temperature: 46.0 °F 41.0 °F 42.6 °F
Dew Point: 40.6 °F 35.5 °F 38.1 °F
Humidity: 93 % 77 % 84 %
Wind Speed: 19.0 mph 0.0 mph 9.7 mph
Wind Gust: 29.0 mph - -
Wind:- - WSW
Pressure: 29.68 in 29.25 in -
Precipitation: 0.07 in    
Historical Graphs
 
 
Tabular Data for January 1, 2018
Time Temperature Dew Point Pressure Wind Wind Speed Wind Gust Humidity Rainfall Rate (Hourly) solar Conditions
00:01 41.7 °F 37.8 °F 29.25 in West 14.0 mph 25.0 mph 86 % 0.00 in 0 W/m2
00:06 41.5 °F 37.7 °F 29.26 in West 15.0 mph 25.0 mph 86 % 0.00 in 0 W/m2
00:11 41.7 °F 37.8 °F 29.26 in West 14.0 mph 22.0 mph 86 % 0.00 in 0 W/m2
00:12 41.7 °F 37.8 °F 29.26 in West 14.0 mph 21.0 mph 86 % 0.00 in 0 W/m2
00:16 41.7 °F 37.8 °F 29.26 in West 15.0 mph 23.0 mph 86 % 0.00 in 0 W/m2
00:19 41.7 °F 37.8 °F 29.26 in West 12.0 mph 19.0 mph 86 % 0.00 in 0 W/m2
00:24 41.7 °F 37.8 °F 29.26 in West 14.0 mph 22.0 mph 86 % 0.00 in 0 W/m2
00:25 41.7 °F 37.8 °F 29.26 in West 14.0 mph 21.0 mph 86 % 0.00 in 0 W/m2
00:30 41.7 °F 37.8 °F 29.26 in WSW 14.0 mph 24.0 mph 86 % 0.00 in 0 W/m2
00:31 41.7 °F 37.8 °F 29.26 in WSW 15.0 mph 24.0 mph 86 % 0.00 in 0 W/m2
00:36 41.7 °F 37.8 °F 29.26 in West 11.0 mph 18.0 mph 86 % 0.00 in 0 W/m2
00:38 41.7 °F 37.8 °F 29.26 in West 11.0 mph 18.0 mph 86 % 0.00 in 0 W/m2
00:41 41.7 °F 37.8 °F 29.27 in WSW 12.0 mph 20.0 mph 86 % 0.00 in 0 W/m2
00:46 41.7 °F 37.8 °F 29.26 in West 13.0 mph 23.0 mph 86 % 0.00 in 0 W/m2
00:47 41.7 °F 37.8 °F 29.27 in West 12.0 mph 21.0 mph 86 % 0.00 in 0 W/m2
00:52 41.7 °F 37.8 °F 29.26 in West 11.0 mph 18.0 mph 86 % 0.00 in 0 W/m2
00:55 41.7 °F 37.8 °F 29.27 in West 14.0 mph 23.0 mph 86 % 0.00 in 0 W/m2
01:00 41.7 °F 37.5 °F 29.27 in WSW 12.0 mph 21.0 mph 85 % 0.00 in 0 W/m2
01:02 41.7 °F 37.5 °F 29.27 in WSW 10.0 mph 14.0 mph 85 % 0.00 in 0 W/m2
01:07 41.5 °F 37.1 °F 29.27 in WSW 10.0 mph 16.0 mph 84 % 0.00 in 0 W/m2
01:12 41.5 °F 37.1 °F 29.27 in WSW 11.0 mph 18.0 mph 84 % 0.00 in 0 W/m2
01:15 41.4 °F 36.6 °F 29.27 in WSW 9.0 mph 15.0 mph 83 % 0.00 in 0 W/m2
01:20 41.4 °F 36.6 °F 29.27 in WSW 12.0 mph 19.0 mph 83 % 0.00 in 0 W/m2
01:21 41.4 °F 36.6 °F 29.27 in WSW 12.0 mph 19.0 mph 83 % 0.00 in 0 W/m2
01:26 41.4 °F 36.3 °F 29.27 in WSW 14.0 mph 23.0 mph 82 % 0.00 in 0 W/m2
01:28 41.4 °F 36.3 °F 29.27 in WSW 11.0 mph 20.0 mph 82 % 0.00 in 0 W/m2
01:33 41.2 °F 36.1 °F 29.26 in WSW 14.0 mph 19.0 mph 82 % 0.00 in 0 W/m2
01:38 41.4 °F 36.3 °F 29.27 in WSW 11.0 mph 19.0 mph 82 % 0.00 in 0 W/m2
01:39 41.4 °F 36.3 °F 29.27 in WSW 12.0 mph 23.0 mph 82 % 0.00 in 0 W/m2
01:44 41.4 °F 36.3 °F 29.27 in WSW 9.0 mph 16.0 mph 82 % 0.00 in 0 W/m2
01:48 41.2 °F 36.1 °F 29.27 in WSW 10.0 mph 19.0 mph 82 % 0.00 in 0 W/m2
01:51 41.4 °F 36.3 °F 29.26 in WSW 10.0 mph 15.0 mph 82 % 0.00 in 0 W/m2
01:55 41.2 °F 36.1 °F 29.26 in WSW 10.0 mph 16.0 mph 82 % 0.00 in 0 W/m2
02:00 41.2 °F 36.1 °F 29.26 in WSW 10.0 mph 18.0 mph 82 % 0.00 in 0 W/m2
02:03 41.2 °F 36.1 °F 29.27 in WSW 13.0 mph 23.0 mph 82 % 0.00 in 0 W/m2
02:05 41.4 °F 36.3 °F 29.27 in WSW 11.0 mph 16.0 mph 82 % 0.00 in 0 W/m2
02:09 41.4 °F 36.3 °F 29.27 in WSW 12.0 mph 20.0 mph 82 % 0.00 in 0 W/m2
02:14 41.5 °F 36.1 °F 29.27 in WSW 15.0 mph 25.0 mph 81 % 0.00 in 0 W/m2
02:19 41.5 °F 36.1 °F 29.27 in WSW 13.0 mph 22.0 mph 81 % 0.00 in 0 W/m2
02:20 41.7 °F 36.3 °F 29.27 in WSW 16.0 mph 29.0 mph 81 % 0.00 in 0 W/m2
02:25 41.7 °F 36.3 °F 29.27 in WSW 14.0 mph 24.0 mph 81 % 0.00 in 0 W/m2
02:27 41.7 °F 36.3 °F 29.27 in WSW 12.0 mph 19.0 mph 81 % 0.00 in 0 W/m2
02:31 41.7 °F 36.3 °F 29.27 in WSW 14.0 mph 26.0 mph 81 % 0.00 in 0 W/m2
02:33 41.5 °F 36.1 °F 29.27 in WSW 12.0 mph 23.0 mph 81 % 0.00 in 0 W/m2
02:37 41.7 °F 36.3 °F 29.27 in WSW 15.0 mph 23.0 mph 81 % 0.00 in 0 W/m2
02:39 41.7 °F 36.3 °F 29.27 in WSW 15.0 mph 23.0 mph 81 % 0.00 in 0 W/m2
02:44 41.7 °F 36.3 °F 29.27 in WSW 14.0 mph 21.0 mph 81 % 0.00 in 0 W/m2
02:46 41.7 °F 36.3 °F 29.27 in WSW 13.0 mph 19.0 mph 81 % 0.00 in 0 W/m2
02:51 41.7 °F 36.3 °F 29.27 in WSW 12.0 mph 18.0 mph 81 % 0.00 in 0 W/m2
02:53 41.5 °F 36.1 °F 29.27 in WSW 12.0 mph 18.0 mph 81 % 0.00 in 0 W/m2
02:58 41.5 °F 36.1 °F 29.27 in SW 13.0 mph 20.0 mph 81 % 0.00 in 0 W/m2
02:59 41.5 °F 36.1 °F 29.27 in SW 13.0 mph 20.0 mph 81 % 0.00 in 0 W/m2
03:04 41.5 °F 36.1 °F 29.27 in SW 13.0 mph 19.0 mph 81 % 0.00 in 0 W/m2
03:05 41.5 °F 36.1 °F 29.27 in SW 12.0 mph 19.0 mph 81 % 0.00 in 0 W/m2
03:10 41.5 °F 35.8 °F 29.27 in SW 14.0 mph 24.0 mph 80 % 0.00 in 0 W/m2
03:15 41.7 °F 36.0 °F 29.27 in SW 11.0 mph 19.0 mph 80 % 0.00 in 0 W/m2
03:17 41.5 °F 35.8 °F 29.27 in SW 10.0 mph 14.0 mph 80 % 0.00 in 0 W/m2
03:22 41.7 °F 35.7 °F 29.27 in SSW 10.0 mph 15.0 mph 79 % 0.00 in 0 W/m2
03:25 41.5 °F 35.5 °F 29.27 in SSW 12.0 mph 20.0 mph 79 % 0.00 in 0 W/m2
03:30 41.5 °F 35.8 °F 29.27 in SW 12.0 mph 22.0 mph 80 % 0.00 in 0 W/m2
03:35 41.4 °F 35.7 °F 29.27 in SW 8.0 mph 14.0 mph 80 % 0.00 in 0 W/m2
03:36 41.4 °F 35.7 °F 29.27 in SW 9.0 mph 16.0 mph 80 % 0.00 in 0 W/m2
03:41 41.2 °F 35.5 °F 29.27 in SW 9.0 mph 12.0 mph 80 % 0.00 in 0 W/m2
03:42 41.2 °F 35.5 °F 29.28 in SW 10.0 mph 16.0 mph 80 % 0.00 in 0 W/m2
03:48 41.2 °F 35.5 °F 29.27 in WSW 11.0 mph 16.0 mph 80 % 0.00 in 0 W/m2
03:53 41.2 °F 35.8 °F 29.28 in SW 8.0 mph 13.0 mph 81 % 0.00 in 0 W/m2
03:56 41.0 °F 35.6 °F 29.27 in WSW 10.0 mph 15.0 mph 81 % 0.00 in 0 W/m2
04:01 41.2 °F 35.8 °F 29.27 in SW 9.0 mph 16.0 mph 81 % 0.00 in 0 W/m2
04:03 41.2 °F 35.8 °F 29.27 in SW 8.0 mph 12.0 mph 81 % 0.00 in 0 W/m2
04:06 41.2 °F 35.8 °F 29.27 in WSW 8.0 mph 14.0 mph 81 % 0.00 in 0 W/m2
04:08 41.2 °F 35.8 °F 29.27 in WSW 7.0 mph 14.0 mph 81 % 0.00 in 0 W/m2
04:13 41.2 °F 35.8 °F 29.26 in WSW 12.0 mph 21.0 mph 81 % 0.00 in 0 W/m2
04:14 41.2 °F 35.8 °F 29.26 in WSW 12.0 mph 21.0 mph 81 % 0.00 in 0 W/m2
04:19 41.4 °F 36.0 °F 29.27 in WSW 7.0 mph 13.0 mph 81 % 0.00 in 0 W/m2
04:21 41.4 °F 36.0 °F 29.27 in WSW 12.0 mph 19.0 mph 81 % 0.00 in 0 W/m2
04:26 41.5 °F 36.1 °F 29.27 in WSW 10.0 mph 14.0 mph 81 % 0.00 in 0 W/m2
04:27 41.5 °F 36.1 °F 29.27 in WSW 10.0 mph 18.0 mph 81 % 0.00 in 0 W/m2
04:29 41.7 °F 36.3 °F 29.27 in WSW 12.0 mph 20.0 mph 81 % 0.00 in 0 W/m2
04:33 42.1 °F 36.7 °F 29.27 in WSW 12.0 mph 21.0 mph 81 % 0.00 in 0 W/m2
04:37 42.3 °F 36.5 °F 29.27 in WSW 12.0 mph 19.0 mph 80 % 0.00 in 0 W/m2
04:38 42.3 °F 36.5 °F 29.27 in WSW 11.0 mph 19.0 mph 80 % 0.00 in 0 W/m2
04:40 42.3 °F 36.5 °F 29.27 in WSW 12.0 mph 24.0 mph 80 % 0.00 in 0 W/m2
04:45 42.4 °F 36.7 °F 29.27 in WSW 13.0 mph 20.0 mph 80 % 0.00 in 0 W/m2
04:50 42.6 °F 36.9 °F 29.26 in WSW 11.0 mph 19.0 mph 80 % 0.00 in 0 W/m2
04:55 42.8 °F 37.1 °F 29.26 in WSW 13.0 mph 22.0 mph 80 % 0.00 in 0 W/m2
04:57 42.8 °F 37.1 °F 29.26 in WSW 11.0 mph 20.0 mph 80 % 0.00 in 0 W/m2
04:58 42.8 °F 37.1 °F 29.26 in WSW 11.0 mph 20.0 mph 80 % 0.00 in 0 W/m2
05:03 43.0 °F 37.2 °F 29.26 in WSW 12.0 mph 20.0 mph 80 % 0.00 in 0 W/m2
05:08 43.0 °F 37.2 °F 29.26 in WSW 10.0 mph 15.0 mph 80 % 0.00 in 0 W/m2
05:09 43.0 °F 37.2 °F 29.26 in WSW 12.0 mph 20.0 mph 80 % 0.00 in 0 W/m2
05:10 43.0 °F 37.5 °F 29.26 in WSW 13.0 mph 20.0 mph 81 % 0.00 in 0 W/m2
05:15 43.0 °F 37.5 °F 29.26 in SW 11.0 mph 16.0 mph 81 % 0.00 in 0 W/m2
05:17 43.0 °F 37.5 °F 29.26 in WSW 13.0 mph 20.0 mph 81 % 0.00 in 0 W/m2
05:21 43.0 °F 37.5 °F 29.26 in WSW 11.0 mph 16.0 mph 81 % 0.00 in 0 W/m2
05:25 43.0 °F 37.5 °F 29.27 in WSW 13.0 mph 23.0 mph 81 % 0.00 in 0 W/m2
05:30 43.0 °F 37.5 °F 29.27 in WSW 13.0 mph 21.0 mph 81 % 0.00 in 0 W/m2
05:34 43.0 °F 37.5 °F 29.27 in WSW 11.0 mph 19.0 mph 81 % 0.00 in 0 W/m2
05:37 43.0 °F 37.5 °F 29.27 in WSW 11.0 mph 18.0 mph 81 % 0.00 in 0 W/m2
05:42 42.8 °F 37.4 °F 29.26 in WSW 13.0 mph 20.0 mph 81 % 0.00 in 0 W/m2
05:44 42.8 °F 37.4 °F 29.27 in WSW 14.0 mph 22.0 mph 81 % 0.00 in 0 W/m2
05:46 42.8 °F 37.4 °F 29.26 in WSW 13.0 mph 25.0 mph 81 % 0.00 in 0 W/m2
05:51 42.8 °F 37.7 °F 29.27 in WSW 15.0 mph 22.0 mph 82 % 0.00 in 0 W/m2
05:56 42.8 °F 37.7 °F 29.26 in WSW 13.0 mph 22.0 mph 82 % 0.00 in 0 W/m2
05:57 42.8 °F 37.7 °F 29.26 in WSW 13.0 mph 22.0 mph 82 % 0.00 in 0 W/m2
06:03 42.8 °F 37.7 °F 29.27 in WSW 15.0 mph 24.0 mph 82 % 0.00 in 0 W/m2
06:05 42.8 °F 37.7 °F 29.27 in WSW 12.0 mph 22.0 mph 82 % 0.00 in 0 W/m2
06:10 43.0 °F 37.5 °F 29.27 in WSW 14.0 mph 22.0 mph 81 % 0.00 in 0 W/m2
06:11 43.0 °F 37.5 °F 29.27 in WSW 16.0 mph 25.0 mph 81 % 0.00 in 0 W/m2
06:16 43.2 °F 37.7 °F 29.27 in WSW 13.0 mph 20.0 mph 81 % 0.00 in 0 W/m2
06:17 43.2 °F 37.7 °F 29.27 in WSW 12.0 mph 19.0 mph 81 % 0.00 in 0 W/m2
06:22 43.2 °F 37.7 °F 29.27 in WSW 13.0 mph 20.0 mph 81 % 0.00 in 0 W/m2
06:24 43.2 °F 37.7 °F 29.27 in WSW 9.0 mph 15.0 mph 81 % 0.00 in 0 W/m2
06:25 43.2 °F 37.7 °F 29.27 in WSW 9.0 mph 15.0 mph 81 % 0.00 in 0 W/m2
06:30 43.2 °F 37.7 °F 29.27 in WSW 12.0 mph 20.0 mph 81 % 0.00 in 0 W/m2
06:31 43.2 °F 37.7 °F 29.27 in WSW 14.0 mph 20.0 mph 81 % 0.00 in 0 W/m2
06:32 43.2 °F 37.7 °F 29.27 in WSW 14.0 mph 20.0 mph 81 % 0.00 in 0 W/m2
06:37 43.2 °F 37.7 °F 29.26 in WSW 12.0 mph 18.0 mph 81 % 0.00 in 0 W/m2
06:40 43.2 °F 37.7 °F 29.27 in WSW 12.0 mph 21.0 mph 81 % 0.00 in 0 W/m2
06:43 43.2 °F 37.7 °F 29.27 in WSW 12.0 mph 22.0 mph 81 % 0.00 in 0 W/m2
06:46 43.2 °F 37.7 °F 29.27 in WSW 11.0 mph 16.0 mph 81 % 0.00 in 0 W/m2
06:51 43.2 °F 37.7 °F 29.27 in WSW 10.0 mph 20.0 mph 81 % 0.00 in 0 W/m2
06:52 43.2 °F 37.4 °F 29.27 in WSW 6.0 mph 10.0 mph 80 % 0.00 in 0 W/m2
06:56 43.2 °F 37.7 °F 29.27 in WSW 9.0 mph 16.0 mph 81 % 0.00 in 0 W/m2
06:59 43.2 °F 37.7 °F 29.27 in SSW 5.0 mph 8.0 mph 81 % 0.00 in 0 W/m2
07:03 43.2 °F 37.7 °F 29.27 in SW 5.0 mph 10.0 mph 81 % 0.00 in 0 W/m2
07:06 43.0 °F 37.5 °F 29.28 in SSE 2.0 mph 6.0 mph 81 % 0.00 in 0 W/m2
07:11 43.0 °F 37.5 °F 29.28 in SSW 3.0 mph 8.0 mph 81 % 0.00 in 0 W/m2
07:12 43.0 °F 37.5 °F 29.28 in SSW 2.0 mph 6.0 mph 81 % 0.00 in 0 W/m2
07:16 43.0 °F 37.5 °F 29.28 in ESE 1.0 mph 5.0 mph 81 % 0.00 in 0 W/m2
07:18 43.0 °F 37.2 °F 29.27 in WNW 3.0 mph 8.0 mph 80 % 0.00 in 0 W/m2
07:22 42.8 °F 37.4 °F 29.28 in SSW 5.0 mph 15.0 mph 81 % 0.00 in 0 W/m2
07:23 43.0 °F 37.5 °F 29.28 in SSW 6.0 mph 15.0 mph 81 % 0.00 in 0 W/m2
07:28 43.0 °F 37.2 °F 29.28 in SSE 1.0 mph 4.0 mph 80 % 0.00 in 0 W/m2
07:29 43.0 °F 37.2 °F 29.28 in SSE 2.0 mph 4.0 mph 80 % 0.00 in 0 W/m2
07:34 42.8 °F 37.1 °F 29.28 in SSE 1.0 mph 4.0 mph 80 % 0.00 in 0 W/m2
07:37 42.8 °F 37.4 °F 29.28 in SSE 3.0 mph 6.0 mph 81 % 0.00 in 0 W/m2
07:40 42.6 °F 37.2 °F 29.27 in SSE 3.0 mph 6.0 mph 81 % 0.00 in 0 W/m2
07:43 42.6 °F 37.5 °F 29.28 in SE 3.0 mph 6.0 mph 82 % 0.00 in 0 W/m2
07:46 42.4 °F 37.3 °F 29.28 in SE 4.0 mph 7.0 mph 82 % 0.00 in 0 W/m2
07:51 42.3 °F 37.5 °F 29.28 in SSW 1.0 mph 6.0 mph 83 % 0.00 in 0 W/m2
07:52 42.3 °F 37.5 °F 29.28 in SSW 2.0 mph 6.0 mph 83 % 0.00 in 0 W/m2
07:55 42.3 °F 37.5 °F 29.28 in South 3.0 mph 5.0 mph 83 % 0.00 in 0 W/m2
07:58 42.3 °F 37.5 °F 29.28 in SE 6.0 mph 9.0 mph 83 % 0.00 in 0 W/m2
08:01 42.3 °F 37.5 °F 29.28 in South 3.0 mph 10.0 mph 83 % 0.00 in 0 W/m2
08:06 42.3 °F 37.5 °F 29.28 in SSW 1.0 mph 5.0 mph 83 % 0.00 in 0 W/m2
08:07 42.3 °F 37.5 °F 29.28 in Calm   1.0 mph 83 % 0.00 in 0 W/m2
08:09 42.3 °F 37.5 °F 29.28 in ESE 1.0 mph 5.0 mph 83 % 0.00 in 0 W/m2
08:13 42.3 °F 37.5 °F 29.28 in East 2.0 mph 6.0 mph 83 % 0.00 in 0 W/m2
08:18 42.3 °F 37.5 °F 29.28 in SSE 3.0 mph 7.0 mph 83 % 0.00 in 0 W/m2
08:20 42.3 °F 37.5 °F 29.28 in SSE 3.0 mph 6.0 mph 83 % 0.00 in 0 W/m2
08:25 42.4 °F 37.6 °F 29.28 in ESE 2.0 mph 5.0 mph 83 % 0.00 in 5 W/m2
08:30 42.6 °F 37.5 °F 29.28 in SE 1.0 mph 5.0 mph 82 % 0.00 in 7 W/m2
08:36 42.6 °F 37.5 °F 29.28 in SE 2.0 mph 5.0 mph 82 % 0.00 in 9 W/m2
08:41 42.6 °F 37.2 °F 29.28 in South 1.0 mph 6.0 mph 81 % 0.00 in 11 W/m2
08:46 42.6 °F 37.2 °F 29.28 in South 2.0 mph 5.0 mph 81 % 0.00 in 14 W/m2
08:47 42.4 °F 37.0 °F 29.28 in South 2.0 mph 5.0 mph 81 % 0.00 in 14 W/m2
08:52 42.4 °F 37.0 °F 29.28 in SW 2.0 mph 5.0 mph 81 % 0.00 in 19 W/m2
08:57 42.3 °F 36.8 °F 29.28 in SW 1.0 mph 2.0 mph 81 % 0.00 in 25 W/m2
09:01 42.1 °F 36.7 °F 29.28 in SW 1.0 mph 3.0 mph 81 % 0.00 in 26 W/m2
09:03 42.1 °F 37.0 °F 29.28 in SW 1.0 mph 3.0 mph 82 % 0.00 in 28 W/m2
09:07 41.9 °F 36.8 °F 29.28 in SW 5.0 mph 8.0 mph 82 % 0.00 in 33 W/m2
09:09 41.9 °F 36.8 °F 29.28 in SW 4.0 mph 6.0 mph 82 % 0.00 in 37 W/m2
09:14 41.9 °F 37.1 °F 29.28 in SW 6.0 mph 8.0 mph 83 % 0.00 in 53 W/m2
09:16 41.9 °F 37.1 °F 29.28 in WSW 7.0 mph 9.0 mph 83 % 0.00 in 58 W/m2
09:21 41.9 °F 37.1 °F 29.29 in WSW 5.0 mph 9.0 mph 83 % 0.00 in 58 W/m2
09:24 41.9 °F 37.1 °F 29.29 in WSW 6.0 mph 10.0 mph 83 % 0.00 in 56 W/m2
09:26 41.9 °F 37.1 °F 29.29 in WSW 7.0 mph 11.0 mph 83 % 0.00 in 56 W/m2
09:31 42.1 °F 37.3 °F 29.29 in WSW 8.0 mph 12.0 mph 83 % 0.00 in 56 W/m2
09:35 42.4 °F 37.6 °F 29.29 in WSW 7.0 mph 11.0 mph 83 % 0.00 in 46 W/m2
09:40 42.6 °F 37.5 °F 29.29 in WSW 7.0 mph 11.0 mph 82 % 0.00 in 35 W/m2
09:43 42.6 °F 37.5 °F 29.29 in WSW 7.0 mph 12.0 mph 82 % 0.00 in 30 W/m2
09:48 43.0 °F 37.9 °F 29.30 in West 7.0 mph 9.0 mph 82 % 0.00 in 28 W/m2
09:52 43.0 °F 37.5 °F 29.30 in West 7.0 mph 11.0 mph 81 % 0.00 in 35 W/m2
09:57 43.2 °F 37.7 °F 29.29 in WSW 7.0 mph 10.0 mph 81 % 0.00 in 49 W/m2
09:58 43.2 °F 37.7 °F 29.30 in WSW 7.0 mph 9.0 mph 81 % 0.00 in 53 W/m2
09:59 43.2 °F 37.7 °F 29.30 in WSW 7.0 mph 9.0 mph 81 % 0.00 in 53 W/m2
10:04 43.0 °F 37.5 °F 29.30 in WSW 8.0 mph 12.0 mph 81 % 0.00 in 44 W/m2
10:09 43.0 °F 37.9 °F 29.30 in SW 9.0 mph 12.0 mph 82 % 0.00 in 39 W/m2
10:13 43.0 °F 37.9 °F 29.30 in WSW 9.0 mph 12.0 mph 82 % 0.00 in 39 W/m2
10:18 43.0 °F 37.9 °F 29.30 in SW 10.0 mph 15.0 mph 82 % 0.00 in 54 W/m2
10:20 43.0 °F 37.9 °F 29.30 in WSW 9.0 mph 13.0 mph 82 % 0.00 in 54 W/m2
10:21 43.0 °F 37.9 °F 29.30 in WSW 9.0 mph 13.0 mph 82 % 0.00 in 51 W/m2
10:26 43.2 °F 38.0 °F 29.30 in SW 8.0 mph 11.0 mph 82 % 0.00 in 47 W/m2
10:31 43.2 °F 38.0 °F 29.30 in SW 8.0 mph 12.0 mph 82 % 0.00 in 54 W/m2
10:35 43.0 °F 38.2 °F 29.30 in SW 8.0 mph 12.0 mph 83 % 0.00 in 53 W/m2
10:38 43.0 °F 38.2 °F 29.30 in SW 8.0 mph 11.0 mph 83 % 0.00 in 53 W/m2
10:41 43.0 °F 38.2 °F 29.30 in SW 6.0 mph 9.0 mph 83 % 0.00 in 51 W/m2
10:45 43.0 °F 38.2 °F 29.30 in SW 6.0 mph 9.0 mph 83 % 0.00 in 49 W/m2
10:46 43.0 °F 38.2 °F 29.30 in SW 6.0 mph 10.0 mph 83 % 0.00 in 51 W/m2
10:50 43.0 °F 38.2 °F 29.30 in WSW 5.0 mph 8.0 mph 83 % 0.00 in 53 W/m2
10:51 43.0 °F 38.2 °F 29.30 in WSW 5.0 mph 7.0 mph 83 % 0.00 in 54 W/m2
10:55 43.0 °F 38.2 °F 29.30 in SW 3.0 mph 9.0 mph 83 % 0.00 in 58 W/m2
10:59 43.0 °F 38.2 °F 29.30 in SW 1.0 mph 6.0 mph 83 % 0.00 in 58 W/m2
11:03 43.0 °F 38.2 °F 29.30 in WSW 2.0 mph 5.0 mph 83 % 0.00 in 54 W/m2
11:08 43.0 °F 38.5 °F 29.30 in West 1.0 mph 4.0 mph 84 % 0.00 in 62 W/m2
11:10 43.0 °F 38.5 °F 29.30 in West 1.0 mph 4.0 mph 84 % 0.00 in 63 W/m2
11:13 43.0 °F 38.5 °F 29.30 in Calm   2.0 mph 84 % 0.00 in 65 W/m2
11:16 43.0 °F 38.5 °F 29.30 in ENE 2.0 mph 5.0 mph 84 % 0.00 in 65 W/m2
11:22 42.8 °F 38.3 °F 29.30 in East 1.0 mph 4.0 mph 84 % 0.00 in 65 W/m2
11:26 42.6 °F 38.1 °F 29.30 in ENE 1.0 mph 4.0 mph 84 % 0.00 in 65 W/m2
11:27 42.6 °F 38.1 °F 29.30 in ENE 2.0 mph 4.0 mph 84 % 0.00 in 65 W/m2
11:32 42.4 °F 38.2 °F 29.30 in ESE 3.0 mph 7.0 mph 85 % 0.00 in 65 W/m2
11:33 42.4 °F 38.2 °F 29.30 in ESE 3.0 mph 7.0 mph 85 % 0.00 in 65 W/m2
11:37 42.4 °F 38.2 °F 29.30 in SSE 7.0 mph 10.0 mph 85 % 0.00 in 63 W/m2
11:42 42.4 °F 38.2 °F 29.30 in South 3.0 mph 8.0 mph 85 % 0.00 in 58 W/m2
11:47 42.4 °F 38.5 °F 29.30 in SSW 2.0 mph 6.0 mph 86 % 0.00 in 56 W/m2
11:48 42.4 °F 38.2 °F 29.30 in South 1.0 mph 5.0 mph 85 % 0.00 in 56 W/m2
11:53 42.4 °F 38.5 °F 29.30 in SSW 5.0 mph 10.0 mph 86 % 0.00 in 63 W/m2
11:58 42.4 °F 38.5 °F 29.30 in SW 5.0 mph 7.0 mph 86 % 0.00 in 70 W/m2
12:03 42.6 °F 38.7 °F 29.30 in SSW 5.0 mph 10.0 mph 86 % 0.00 in 81 W/m2
12:05 42.6 °F 38.4 °F 29.30 in SSW 5.0 mph 10.0 mph 85 % 0.00 in 83 W/m2
12:10 42.8 °F 38.6 °F 29.31 in SW 3.0 mph 8.0 mph 85 % 0.00 in 88 W/m2
12:15 42.8 °F 38.6 °F 29.30 in SSW 4.0 mph 10.0 mph 85 % 0.00 in 86 W/m2
12:20 43.2 °F 39.0 °F 29.30 in WSW 6.0 mph 9.0 mph 85 % 0.00 in 86 W/m2
12:21 43.2 °F 39.0 °F 29.30 in WSW 4.0 mph 8.0 mph 85 % 0.00 in 84 W/m2
12:24 43.2 °F 39.0 °F 29.31 in SW 4.0 mph 6.0 mph 85 % 0.00 in 83 W/m2
12:26 43.3 °F 39.1 °F 29.31 in WSW 3.0 mph 10.0 mph 85 % 0.00 in 83 W/m2
12:30 43.5 °F 39.0 °F 29.31 in WSW 6.0 mph 10.0 mph 84 % 0.00 in 84 W/m2
12:35 43.7 °F 39.2 °F 29.31 in WSW 3.0 mph 6.0 mph 84 % 0.00 in 91 W/m2
12:37 43.7 °F 39.2 °F 29.31 in WSW 4.0 mph 9.0 mph 84 % 0.00 in 91 W/m2
12:38 43.9 °F 39.1 °F 29.31 in WSW 6.0 mph 9.0 mph 83 % 0.00 in 91 W/m2
12:42 43.9 °F 39.1 °F 29.31 in WSW 7.0 mph 12.0 mph 83 % 0.00 in 102 W/m2
12:44 44.1 °F 38.9 °F 29.31 in WSW 9.0 mph 14.0 mph 82 % 0.00 in 109 W/m2
12:47 44.1 °F 38.9 °F 29.31 in WSW 7.0 mph 16.0 mph 82 % 0.00 in 111 W/m2
12:52 44.2 °F 39.1 °F 29.31 in WSW 7.0 mph 10.0 mph 82 % 0.00 in 104 W/m2
12:55 44.2 °F 39.1 °F 29.31 in WSW 9.0 mph 15.0 mph 82 % 0.00 in 105 W/m2
13:00 44.2 °F 39.1 °F 29.31 in WSW 8.0 mph 11.0 mph 82 % 0.00 in 165 W/m2
13:05 44.4 °F 39.3 °F 29.31 in SW 8.0 mph 13.0 mph 82 % 0.00 in 285 W/m2
13:06 44.6 °F 39.4 °F 29.31 in WSW 7.0 mph 11.0 mph 82 % 0.00 in 281 W/m2
13:08 44.8 °F 39.6 °F 29.31 in SW 5.0 mph 9.0 mph 82 % 0.00 in 287 W/m2
13:13 45.1 °F 39.7 °F 29.31 in WSW 8.0 mph 11.0 mph 81 % 0.00 in 162 W/m2
13:15 45.1 °F 39.7 °F 29.30 in WSW 8.0 mph 12.0 mph 81 % 0.00 in 239 W/m2
13:21 45.3 °F 39.5 °F 29.30 in West 9.0 mph 14.0 mph 80 % 0.00 in 69 W/m2
13:23 45.3 °F 39.5 °F 29.31 in WSW 7.0 mph 12.0 mph 80 % 0.00 in 100 W/m2
13:28 45.1 °F 39.0 °F 29.30 in WSW 12.0 mph 18.0 mph 79 % 0.00 in 49 W/m2
13:30 45.0 °F 39.2 °F 29.30 in WSW 11.0 mph 18.0 mph 80 % 0.00 in 49 W/m2
13:35 44.8 °F 39.0 °F 29.31 in WSW 10.0 mph 16.0 mph 80 % 0.00 in 53 W/m2
13:38 44.6 °F 39.1 °F 29.31 in WSW 9.0 mph 14.0 mph 81 % 0.00 in 51 W/m2
13:43 44.4 °F 39.0 °F 29.31 in WSW 9.0 mph 14.0 mph 81 % 0.00 in 63 W/m2
13:44 44.4 °F 39.0 °F 29.31 in WSW 8.0 mph 12.0 mph 81 % 0.00 in 63 W/m2
13:49 44.4 °F 39.0 °F 29.31 in West 7.0 mph 13.0 mph 81 % 0.00 in 77 W/m2
13:54 44.8 °F 39.6 °F 29.31 in WSW 9.0 mph 16.0 mph 82 % 0.00 in 179 W/m2
13:55 45.0 °F 39.5 °F 29.31 in WSW 10.0 mph 16.0 mph 81 % 0.00 in 167 W/m2
14:00 45.1 °F 39.3 °F 29.31 in West 10.0 mph 14.0 mph 80 % 0.00 in 127 W/m2
14:05 45.5 °F 39.7 °F 29.31 in WSW 4.0 mph 7.0 mph 80 % 0.00 in 160 W/m2
14:10 45.9 °F 39.7 °F 29.31 in WSW 4.0 mph 7.0 mph 79 % 0.00 in 149 W/m2
14:11 45.9 °F 39.7 °F 29.31 in WSW 4.0 mph 7.0 mph 79 % 0.00 in 149 W/m2
14:16 46.0 °F 39.6 °F 29.31 in WSW 6.0 mph 9.0 mph 78 % 0.00 in 162 W/m2
14:19 46.0 °F 39.6 °F 29.31 in WSW 6.0 mph 13.0 mph 78 % 0.00 in 155 W/m2
14:21 46.0 °F 39.2 °F 29.31 in WSW 9.0 mph 15.0 mph 77 % 0.00 in 160 W/m2
14:24 46.0 °F 39.2 °F 29.31 in WSW 7.0 mph 13.0 mph 77 % 0.00 in 160 W/m2
14:29 45.9 °F 39.1 °F 29.31 in WSW 9.0 mph 14.0 mph 77 % 0.00 in 155 W/m2
14:31 45.9 °F 39.1 °F 29.31 in WSW 8.0 mph 14.0 mph 77 % 0.00 in 146 W/m2
14:36 45.7 °F 38.9 °F 29.31 in SW 8.0 mph 11.0 mph 77 % 0.00 in 40 W/m2
14:39 45.5 °F 38.7 °F 29.31 in SW 9.0 mph 14.0 mph 77 % 0.00 in 32 W/m2
14:44 45.1 °F 38.7 °F 29.31 in SW 8.0 mph 13.0 mph 78 % 0.00 in 19 W/m2
14:45 45.0 °F 38.5 °F 29.31 in WSW 8.0 mph 13.0 mph 78 % 0.00 in 16 W/m2
14:47 45.0 °F 38.8 °F 29.31 in WSW 10.0 mph 13.0 mph 79 % 0.00 in 14 W/m2
14:52 44.8 °F 39.0 °F 29.32 in West 8.0 mph 14.0 mph 80 % 0.00 in 26 W/m2
14:54 44.6 °F 39.1 °F 29.32 in WSW 10.0 mph 18.0 mph 81 % 0.00 in 44 W/m2
14:59 44.2 °F 39.1 °F 29.31 in SW 11.0 mph 18.0 mph 82 % 0.00 in 19 W/m2
15:00 44.1 °F 38.9 °F 29.31 in SW 12.0 mph 18.0 mph 82 % 0.00 in 19 W/m2
15:05 43.9 °F 39.1 °F 29.31 in SW 10.0 mph 13.0 mph 83 % 0.00 in 60 W/m2
15:10 43.5 °F 39.0 °F 29.31 in SW 8.0 mph 16.0 mph 84 % 0.00 in 18 W/m2
15:12 43.5 °F 39.3 °F 29.31 in SW 10.0 mph 16.0 mph 85 % 0.00 in 23 W/m2
15:13 43.5 °F 39.3 °F 29.31 in SW 9.0 mph 14.0 mph 85 % 0.00 in 16 W/m2
15:18 43.2 °F 39.0 °F 29.31 in SW 9.0 mph 11.0 mph 85 % 0.00 in 30 W/m2
15:19 43.2 °F 39.0 °F 29.31 in SW 8.0 mph 11.0 mph 85 % 0.00 in 18 W/m2
15:20 43.2 °F 39.0 °F 29.31 in SW 8.0 mph 12.0 mph 85 % 0.00 in 14 W/m2
15:25 43.2 °F 39.3 °F 29.31 in SW 9.0 mph 14.0 mph 86 % 0.00 in 11 W/m2
15:30 43.0 °F 39.1 °F 29.31 in WSW 7.0 mph 12.0 mph 86 % 0.00 in 9 W/m2
15:31 43.0 °F 39.1 °F 29.31 in SW 6.0 mph 10.0 mph 86 % 0.00 in 9 W/m2
15:33 43.0 °F 39.1 °F 29.31 in SW 8.0 mph 12.0 mph 86 % 0.00 in 9 W/m2
15:38 43.0 °F 39.4 °F 29.31 in WSW 9.0 mph 14.0 mph 87 % 0.00 in 9 W/m2
15:41 43.0 °F 39.4 °F 29.31 in WSW 9.0 mph 15.0 mph 87 % 0.00 in 5 W/m2
15:42 43.0 °F 39.4 °F 29.31 in WSW 9.0 mph 15.0 mph 87 % 0.00 in 5 W/m2
15:48 43.2 °F 39.6 °F 29.32 in WSW 10.0 mph 14.0 mph 87 % 0.00 in 0 W/m2
15:50 43.2 °F 39.6 °F 29.32 in WSW 7.0 mph 12.0 mph 87 % 0.00 in 0 W/m2
15:55 43.3 °F 39.4 °F 29.32 in WSW 12.0 mph 20.0 mph 86 % 0.00 in 0 W/m2
15:57 43.2 °F 39.3 °F 29.32 in WSW 10.0 mph 15.0 mph 86 % 0.00 in 0 W/m2
16:01 43.2 °F 39.3 °F 29.31 in WSW 7.0 mph 12.0 mph 86 % 0.00 in 0 W/m2
16:04 43.2 °F 39.3 °F 29.31 in WSW 9.0 mph 16.0 mph 86 % 0.00 in 0 W/m2
16:09 43.0 °F 39.1 °F 29.31 in WSW 6.0 mph 11.0 mph 86 % 0.00 in 0 W/m2
16:14 43.0 °F 39.1 °F 29.32 in WSW 8.0 mph 14.0 mph 86 % 0.00 in 0 W/m2
16:15 43.0 °F 39.1 °F 29.32 in SW 9.0 mph 14.0 mph 86 % 0.01 in 0 W/m2
16:18 43.0 °F 39.4 °F 29.32 in West 9.0 mph 16.0 mph 87 % 0.01 in 0 W/m2
16:23 43.2 °F 39.6 °F 29.31 in WSW 10.0 mph 16.0 mph 87 % 0.01 in 0 W/m2
16:25 43.0 °F 39.4 °F 29.32 in WSW 12.0 mph 20.0 mph 87 % 0.01 in 0 W/m2
16:30 42.8 °F 39.5 °F 29.32 in West 9.0 mph 18.0 mph 88 % 0.02 in 0 W/m2
16:31 42.6 °F 39.3 °F 29.32 in West 11.0 mph 18.0 mph 88 % 0.02 in 0 W/m2
16:32 42.6 °F 39.3 °F 29.32 in West 10.0 mph 18.0 mph 88 % 0.02 in 0 W/m2
16:37 42.4 °F 39.4 °F 29.32 in WSW 9.0 mph 12.0 mph 89 % 0.03 in 0 W/m2
16:38 42.4 °F 39.4 °F 29.32 in WSW 8.0 mph 12.0 mph 89 % 0.03 in 0 W/m2
16:43 42.3 °F 39.5 °F 29.33 in WSW 10.0 mph 15.0 mph 90 % 0.04 in 0 W/m2
16:45 42.3 °F 39.5 °F 29.32 in West 11.0 mph 20.0 mph 90 % 0.05 in 0 W/m2
16:50 42.1 °F 39.4 °F 29.32 in West 10.0 mph 15.0 mph 90 % 0.06 in 0 W/m2
16:51 42.1 °F 39.4 °F 29.32 in West 8.0 mph 11.0 mph 90 % 0.06 in 0 W/m2
16:55 41.9 °F 39.2 °F 29.32 in West 6.0 mph 10.0 mph 90 % 0.06 in 0 W/m2
16:59 41.7 °F 39.3 °F 29.32 in West 5.0 mph 8.0 mph 91 % 0.07 in 0 W/m2
17:00 41.7 °F 39.3 °F 29.32 in West 5.0 mph 7.0 mph 91 % 0.07 in 0 W/m2
17:05 41.7 °F 39.3 °F 29.32 in West 5.0 mph 11.0 mph 91 % 0.07 in 0 W/m2
17:07 41.7 °F 39.3 °F 29.32 in West 7.0 mph 11.0 mph 91 % 0.07 in 0 W/m2
17:11 41.7 °F 39.6 °F 29.32 in WNW 4.0 mph 10.0 mph 92 % 0.07 in 0 W/m2
17:16 41.7 °F 39.6 °F 29.32 in WNW 8.0 mph 13.0 mph 92 % 0.06 in 0 W/m2
17:17 41.7 °F 39.6 °F 29.33 in WNW 8.0 mph 13.0 mph 92 % 0.06 in 0 W/m2
17:18 41.9 °F 39.7 °F 29.33 in WNW 8.0 mph 13.0 mph 92 % 0.06 in 0 W/m2
17:23 42.1 °F 40.2 °F 29.33 in WNW 11.0 mph 25.0 mph 93 % 0.06 in 0 W/m2
17:28 42.4 °F 40.6 °F 29.34 in WNW 13.0 mph 22.0 mph 93 % 0.06 in 0 W/m2
17:33 42.4 °F 40.6 °F 29.35 in WNW 14.0 mph 23.0 mph 93 % 0.05 in 0 W/m2
17:37 42.4 °F 40.6 °F 29.35 in WNW 14.0 mph 22.0 mph 93 % 0.04 in 0 W/m2
17:42 42.4 °F 40.6 °F 29.36 in WNW 10.0 mph 21.0 mph 93 % 0.03 in 0 W/m2
17:47 42.4 °F 40.6 °F 29.37 in WNW 14.0 mph 21.0 mph 93 % 0.02 in 0 W/m2
17:51 42.4 °F 40.6 °F 29.37 in WNW 10.0 mph 19.0 mph 93 % 0.02 in 0 W/m2
17:53 42.4 °F 40.6 °F 29.38 in NW 12.0 mph 19.0 mph 93 % 0.01 in 0 W/m2
17:58 42.4 °F 40.3 °F 29.38 in WNW 12.0 mph 24.0 mph 92 % 0.00 in 0 W/m2
18:03 42.4 °F 40.3 °F 29.39 in WNW 13.0 mph 23.0 mph 92 % 0.00 in 0 W/m2
18:05 42.4 °F 40.3 °F 29.39 in NW 14.0 mph 22.0 mph 92 % 0.00 in 0 W/m2
18:07 42.4 °F 40.3 °F 29.39 in WNW 15.0 mph 26.0 mph 92 % 0.00 in 0 W/m2
18:12 42.4 °F 40.3 °F 29.39 in WNW 12.0 mph 20.0 mph 92 % 0.00 in 0 W/m2
18:17 42.4 °F 40.0 °F 29.40 in WNW 12.0 mph 20.0 mph 91 % 0.00 in 0 W/m2
18:18 42.4 °F 40.0 °F 29.40 in WNW 11.0 mph 18.0 mph 91 % 0.00 in 0 W/m2
18:23 42.4 °F 40.0 °F 29.41 in WNW 14.0 mph 24.0 mph 91 % 0.00 in 0 W/m2
18:28 42.4 °F 40.3 °F 29.42 in WNW 14.0 mph 27.0 mph 92 % 0.00 in 0 W/m2
18:33 42.6 °F 40.2 °F 29.42 in WNW 12.0 mph 22.0 mph 91 % 0.00 in 0 W/m2
18:34 42.6 °F 40.2 °F 29.42 in WNW 11.0 mph 21.0 mph 91 % 0.00 in 0 W/m2
18:39 42.6 °F 40.2 °F 29.43 in NW 11.0 mph 20.0 mph 91 % 0.00 in 0 W/m2
18:44 42.8 °F 40.4 °F 29.43 in WNW 12.0 mph 20.0 mph 91 % 0.00 in 0 W/m2
18:49 42.8 °F 40.4 °F 29.44 in WNW 13.0 mph 21.0 mph 91 % 0.00 in 0 W/m2
18:54 42.8 °F 40.1 °F 29.45 in WNW 14.0 mph 22.0 mph 90 % 0.00 in 0 W/m2
18:59 42.8 °F 40.1 °F 29.46 in WNW 12.0 mph 18.0 mph 90 % 0.00 in 0 W/m2
19:00 43.0 °F 40.2 °F 29.46 in WNW 12.0 mph 18.0 mph 90 % 0.00 in 0 W/m2
19:05 42.8 °F 40.1 °F 29.46 in WNW 11.0 mph 18.0 mph 90 % 0.00 in 0 W/m2
19:07 43.0 °F 40.2 °F 29.47 in WNW 11.0 mph 20.0 mph 90 % 0.00 in 0 W/m2
19:10 43.0 °F 40.2 °F 29.47 in NW 13.0 mph 23.0 mph 90 % 0.00 in 0 W/m2
19:14 43.0 °F 40.2 °F 29.47 in WNW 12.0 mph 19.0 mph 90 % 0.00 in 0 W/m2
19:19 43.0 °F 40.2 °F 29.48 in WNW 10.0 mph 19.0 mph 90 % 0.00 in 0 W/m2
19:21 43.0 °F 40.2 °F 29.48 in NW 9.0 mph 20.0 mph 90 % 0.00 in 0 W/m2
19:26 43.0 °F 40.2 °F 29.49 in WNW 11.0 mph 20.0 mph 90 % 0.00 in 0 W/m2
19:28 43.0 °F 40.2 °F 29.49 in WNW 11.0 mph 16.0 mph 90 % 0.00 in 0 W/m2
19:33 43.0 °F 40.0 °F 29.50 in WNW 11.0 mph 20.0 mph 89 % 0.00 in 0 W/m2
19:34 43.0 °F 40.0 °F 29.50 in WNW 11.0 mph 18.0 mph 89 % 0.00 in 0 W/m2
19:35 42.8 °F 39.8 °F 29.50 in WNW 10.0 mph 15.0 mph 89 % 0.00 in 0 W/m2
19:40 42.6 °F 39.6 °F 29.50 in WNW 11.0 mph 20.0 mph 89 % 0.00 in 0 W/m2
19:44 42.6 °F 39.6 °F 29.51 in NW 9.0 mph 13.0 mph 89 % 0.00 in 0 W/m2
19:47 42.4 °F 39.4 °F 29.51 in NW 10.0 mph 16.0 mph 89 % 0.00 in 0 W/m2
19:52 42.4 °F 39.4 °F 29.51 in WNW 11.0 mph 21.0 mph 89 % 0.00 in 0 W/m2
19:57 42.4 °F 39.4 °F 29.51 in WNW 10.0 mph 14.0 mph 89 % 0.00 in 0 W/m2
20:00 42.4 °F 39.4 °F 29.52 in WNW 14.0 mph 25.0 mph 89 % 0.00 in 0 W/m2
20:02 42.6 °F 39.6 °F 29.52 in WNW 14.0 mph 25.0 mph 89 % 0.00 in 0 W/m2
20:07 42.6 °F 39.6 °F 29.52 in WNW 16.0 mph 24.0 mph 89 % 0.00 in 0 W/m2
20:08 42.6 °F 39.6 °F 29.52 in WNW 15.0 mph 23.0 mph 89 % 0.00 in 0 W/m2
20:13 42.6 °F 39.6 °F 29.53 in WNW 15.0 mph 25.0 mph 89 % 0.00 in 0 W/m2
20:18 42.6 °F 39.3 °F 29.53 in WNW 14.0 mph 26.0 mph 88 % 0.00 in 0 W/m2
20:19 42.6 °F 39.3 °F 29.53 in WNW 14.0 mph 26.0 mph 88 % 0.00 in 0 W/m2
20:24 42.4 °F 39.1 °F 29.53 in WNW 14.0 mph 24.0 mph 88 % 0.00 in 0 W/m2
20:29 42.4 °F 39.1 °F 29.54 in WNW 15.0 mph 25.0 mph 88 % 0.00 in 0 W/m2
20:33 42.3 °F 39.0 °F 29.54 in WNW 17.0 mph 25.0 mph 88 % 0.00 in 0 W/m2
20:34 42.3 °F 38.7 °F 29.54 in WNW 17.0 mph 28.0 mph 87 % 0.00 in 0 W/m2
20:39 42.1 °F 38.5 °F 29.55 in WNW 19.0 mph 27.0 mph 87 % 0.00 in 0 W/m2
20:40 42.1 °F 38.5 °F 29.55 in WNW 18.0 mph 27.0 mph 87 % 0.00 in 0 W/m2
20:45 42.1 °F 38.5 °F 29.55 in WNW 17.0 mph 28.0 mph 87 % 0.00 in 0 W/m2
20:46 42.1 °F 38.5 °F 29.55 in WNW 16.0 mph 28.0 mph 87 % 0.00 in 0 W/m2
20:50 41.7 °F 38.1 °F 29.56 in WNW 11.0 mph 22.0 mph 87 % 0.00 in 0 W/m2
20:51 41.7 °F 38.1 °F 29.56 in WNW 11.0 mph 20.0 mph 87 % 0.00 in 0 W/m2
20:56 41.5 °F 38.0 °F 29.56 in WNW 11.0 mph 19.0 mph 87 % 0.00 in 0 W/m2
21:01 41.5 °F 38.0 °F 29.56 in WNW 13.0 mph 22.0 mph 87 % 0.00 in 0 W/m2
21:03 41.4 °F 37.8 °F 29.56 in WNW 14.0 mph 24.0 mph 87 % 0.00 in 0 W/m2
21:06 41.4 °F 37.8 °F 29.56 in WNW 11.0 mph 18.0 mph 87 % 0.00 in 0 W/m2
21:11 41.4 °F 37.5 °F 29.56 in WNW 14.0 mph 21.0 mph 86 % 0.00 in 0 W/m2
21:12 41.4 °F 37.5 °F 29.57 in WNW 12.0 mph 20.0 mph 86 % 0.00 in 0 W/m2
21:16 41.2 °F 37.3 °F 29.57 in WNW 14.0 mph 21.0 mph 86 % 0.00 in 0 W/m2
21:19 41.2 °F 37.3 °F 29.57 in WNW 16.0 mph 23.0 mph 86 % 0.00 in 0 W/m2
21:20 41.2 °F 37.3 °F 29.57 in WNW 16.0 mph 23.0 mph 86 % 0.00 in 0 W/m2
21:25 41.4 °F 37.2 °F 29.57 in WNW 13.0 mph 21.0 mph 85 % 0.00 in 0 W/m2
21:26 41.4 °F 37.2 °F 29.57 in WNW 12.0 mph 20.0 mph 85 % 0.00 in 0 W/m2
21:31 41.4 °F 37.2 °F 29.58 in WNW 16.0 mph 26.0 mph 85 % 0.00 in 0 W/m2
21:32 41.4 °F 37.2 °F 29.58 in WNW 17.0 mph 26.0 mph 85 % 0.00 in 0 W/m2
21:37 41.4 °F 36.9 °F 29.58 in WNW 13.0 mph 19.0 mph 84 % 0.00 in 0 W/m2
21:38 41.4 °F 37.2 °F 29.58 in WNW 13.0 mph 20.0 mph 85 % 0.00 in 0 W/m2
21:43 41.5 °F 37.4 °F 29.59 in WNW 18.0 mph 27.0 mph 85 % 0.00 in 0 W/m2
21:44 41.5 °F 37.4 °F 29.59 in WNW 18.0 mph 27.0 mph 85 % 0.00 in 0 W/m2
21:49 41.7 °F 37.5 °F 29.59 in WNW 15.0 mph 23.0 mph 85 % 0.00 in 0 W/m2
21:50 41.7 °F 37.5 °F 29.59 in West 15.0 mph 23.0 mph 85 % 0.00 in 0 W/m2
21:55 41.7 °F 37.8 °F 29.59 in West 15.0 mph 21.0 mph 86 % 0.00 in 0 W/m2
21:56 41.7 °F 37.8 °F 29.59 in WNW 15.0 mph 22.0 mph 86 % 0.00 in 0 W/m2
22:01 41.7 °F 37.8 °F 29.60 in West 17.0 mph 25.0 mph 86 % 0.00 in 0 W/m2
22:07 41.5 °F 37.7 °F 29.60 in WNW 15.0 mph 25.0 mph 86 % 0.00 in 0 W/m2
22:08 41.7 °F 37.8 °F 29.60 in WNW 16.0 mph 25.0 mph 86 % 0.00 in 0 W/m2
22:10 41.5 °F 37.7 °F 29.60 in WNW 15.0 mph 22.0 mph 86 % 0.00 in 0 W/m2
22:14 41.7 °F 37.8 °F 29.61 in WNW 15.0 mph 20.0 mph 86 % 0.00 in 0 W/m2
22:15 41.7 °F 37.8 °F 29.61 in WNW 14.0 mph 20.0 mph 86 % 0.00 in 0 W/m2
22:17 41.7 °F 37.8 °F 29.61 in WNW 14.0 mph 22.0 mph 86 % 0.00 in 0 W/m2
22:21 41.7 °F 37.8 °F 29.61 in WNW 14.0 mph 22.0 mph 86 % 0.00 in 0 W/m2
22:26 41.7 °F 37.8 °F 29.62 in WNW 15.0 mph 23.0 mph 86 % 0.00 in 0 W/m2
22:27 41.7 °F 37.8 °F 29.62 in WNW 14.0 mph 23.0 mph 86 % 0.00 in 0 W/m2
22:32 41.7 °F 37.8 °F 29.62 in West 15.0 mph 23.0 mph 86 % 0.00 in 0 W/m2
22:34 41.7 °F 37.8 °F 29.62 in West 15.0 mph 23.0 mph 86 % 0.00 in 0 W/m2
22:39 41.7 °F 37.8 °F 29.63 in West 13.0 mph 24.0 mph 86 % 0.00 in 0 W/m2
22:44 41.7 °F 37.8 °F 29.64 in WNW 15.0 mph 26.0 mph 86 % 0.00 in 0 W/m2
22:45 41.7 °F 37.8 °F 29.64 in WNW 13.0 mph 21.0 mph 86 % 0.00 in 0 W/m2
22:50 41.7 °F 38.1 °F 29.64 in WNW 13.0 mph 19.0 mph 87 % 0.00 in 0 W/m2
22:53 41.7 °F 38.1 °F 29.65 in WNW 13.0 mph 19.0 mph 87 % 0.00 in 0 W/m2
22:57 41.9 °F 38.3 °F 29.65 in WNW 11.0 mph 19.0 mph 87 % 0.00 in 0 W/m2
23:01 42.1 °F 38.5 °F 29.65 in WNW 12.0 mph 19.0 mph 87 % 0.00 in 0 W/m2
23:06 42.1 °F 38.5 °F 29.66 in WNW 11.0 mph 20.0 mph 87 % 0.00 in 0 W/m2
23:07 42.1 °F 38.5 °F 29.66 in WNW 11.0 mph 20.0 mph 87 % 0.00 in 0 W/m2
23:09 42.1 °F 38.5 °F 29.66 in WNW 9.0 mph 16.0 mph 87 % 0.00 in 0 W/m2
23:13 42.1 °F 38.5 °F 29.66 in WNW 14.0 mph 23.0 mph 87 % 0.00 in 0 W/m2
23:18 42.3 °F 38.4 °F 29.66 in WNW 13.0 mph 23.0 mph 86 % 0.00 in 0 W/m2
23:20 42.4 °F 38.5 °F 29.66 in WNW 15.0 mph 25.0 mph 86 % 0.00 in 0 W/m2
23:25 42.4 °F 38.5 °F 29.66 in WNW 17.0 mph 27.0 mph 86 % 0.00 in 0 W/m2
23:28 42.4 °F 38.2 °F 29.67 in WNW 19.0 mph 27.0 mph 85 % 0.00 in 0 W/m2
23:31 42.6 °F 38.4 °F 29.67 in WNW 14.0 mph 23.0 mph 85 % 0.00 in 0 W/m2
23:35 42.6 °F 38.4 °F 29.67 in WNW 12.0 mph 23.0 mph 85 % 0.00 in 0 W/m2
23:38 42.6 °F 38.4 °F 29.67 in West 12.0 mph 20.0 mph 85 % 0.00 in 0 W/m2
23:41 42.6 °F 38.4 °F 29.67 in WNW 13.0 mph 21.0 mph 85 % 0.00 in 0 W/m2
23:46 42.6 °F 38.4 °F 29.68 in WNW 12.0 mph 24.0 mph 85 % 0.00 in 0 W/m2
23:51 42.6 °F 38.4 °F 29.68 in WNW 12.0 mph 20.0 mph 85 % 0.00 in 0 W/m2
23:53 42.8 °F 38.6 °F 29.68 in WNW 15.0 mph 23.0 mph 85 % 0.00 in 0 W/m2
23:56 42.8 °F 38.6 °F 29.67 in WNW 11.0 mph 21.0 mph 85 % 0.00 in 0 W/m2
Delerius-Weather
Compliments of Weather Underground - 3 mb

Data updates at regular intervals.